Eurocargo Venezia — IBKS — position and weather

sailwx.info

Track history (hours):
 
Tides and Currents Weather Stations Pressure Air Temp Water Temp Dewpoint Dewpoint Depression Visibility Wind Speed Wind Dir Waves Ship Positions

Eurocargo Venezia

Last reported at 2016-May-24 13:17 UTC. Time now 2016-May-24 13:45 UTC.
Position N 42°41' E 010°41'.

Length 200 m; draft 7.5 m.

Type: Cargo ship. MMSI: 247297200.

Date/timePositionNaut miles runAvg speedWind from/ knotsBaromVisibWave heightAir tempDewpointWater temp
2016-May-24 13:17N 42°41' E 010°41'2018.6
2016-May-24 12:14N 42°57' E 010°26'1218.6
2016-May-24 11:34N 43°08' E 010°20'1918.6
2016-May-24 10:34N 43°26' E 010°13'9 8.7
2016-May-24 09:33N 43°34' E 010°19'1 0.7
2016-May-24 08:33N 43°35' E 010°19'0 0.0
2016-May-24 07:30N 43°35' E 010°19'0 0.0
2016-May-24 06:33N 43°35' E 010°19'0 0.0
2016-May-24 05:33N 43°35' E 010°19'0 0.0
2016-May-24 04:33N 43°35' E 010°19'0 0.0
2016-May-24 03:30N 43°35' E 010°19'0 0.0
2016-May-24 02:33N 43°35' E 010°19'0 0.0
2016-May-24 01:30N 43°35' E 010°19'1 1.1
2016-May-24 00:33N 43°34' E 010°18'1010.3
2016-May-23 23:33N 43°30' E 010°05'1918.6
2016-May-23 22:33N 43°41' E 009°45'1919.1
2016-May-23 21:33N 43°56' E 009°27'1919.4
2016-May-23 20:33N 44°10' E 009°10'1716.8
2016-May-23 19:33N 44°24' E 008°56'2 1.7
2016-May-23 18:32N 44°24' E 008°53'0 0.0
2016-May-23 17:32N 44°24' E 008°53'0 0.0
2016-May-23 16:32N 44°24' E 008°53'0 0.0
2016-May-23 15:32N 44°24' E 008°53'0 0.0
2016-May-23 14:29N 44°24' E 008°53'0 0.0
2016-May-23 13:29N 44°24' E 008°53'0 0.0
2016-May-23 12:32N 44°24' E 008°53'0 0.0
2016-May-23 11:32N 44°24' E 008°53'0 0.0
2016-May-23 10:32N 44°24' E 008°53'0 0.0
2016-May-23 09:32N 44°24' E 008°53'0 0.0
2016-May-23 08:32N 44°24' E 008°53'0 0.0
2016-May-23 07:32N 44°24' E 008°53'0 0.0
2016-May-23 06:32N 44°24' E 008°53'1 0.9
2016-May-23 05:33N 44°24' E 008°54'1313.3
2016-May-23 04:33N 44°14' E 009°06'1716.9
2016-May-23 03:33N 44°01' E 009°22'1717.4
2016-May-23 02:34N 43°48' E 009°37'1818.0
2016-May-23 01:33N 43°34' E 009°53'1818.0
2016-May-23 00:33N 43°20' E 010°09'1818.2
2016-May-22 23:33N 43°03' E 010°20'2418.0
2016-May-22 22:13N 42°43' E 010°38'1418.6
2016-May-22 21:27N 42°32' E 010°49'1618.0
2016-May-22 20:33N 42°21' E 011°06'1818.4
2016-May-22 19:33N 42°11' E 011°26'1818.4
2016-May-22 18:33N 41°58' E 011°44'1818.2
2016-May-22 17:33N 41°45' E 012°01'1818.4
2016-May-22 16:33N 41°32' E 012°19'1818.3
2016-May-22 15:33N 41°20' E 012°36'1818.3
2016-May-22 14:33N 41°09' E 012°57'1918.6
2016-May-22 13:33N 40°59' E 013°17'1818.5
2016-May-22 12:33N 40°47' E 013°35'1919.2
2016-May-22 11:33N 40°31' E 013°50'1919.0
2016-May-22 10:33N 40°15' E 014°04'1919.2
2016-May-22 09:33N 39°59' E 014°19'5418.1
2016-May-22 06:33N 39°15' E 014°60'1818.1
2016-May-22 05:34N 39°00' E 015°13'1818.1
2016-May-22 04:33N 38°45' E 015°25'1818.0
2016-May-22 03:33N 38°29' E 015°36'1414.5
2016-May-22 02:34N 38°15' E 015°39'1616.2
2016-May-22 01:33N 37°60' E 015°31'2020.0
2016-May-22 00:33N 37°42' E 015°20'17 2.3
2016-May-21 17:17N 37°29' E 015°06'4414.9
2016-May-21 14:20N 36°46' E 015°16'1620.3
2016-May-21 13:33N 36°33' E 015°06'2019.9
2016-May-21 12:34N 36°17' E 014°52'2019.5
2016-May-21 11:34N 36°00' E 014°38'10 9.5
2016-May-21 10:33N 35°53' E 014°31'0 0.0
2016-May-21 09:33N 35°53' E 014°31'0 0.0
2016-May-21 08:33N 35°53' E 014°31'0 0.0
2016-May-21 07:33N 35°53' E 014°31'0 0.0
2016-May-21 06:30N 35°53' E 014°31'0 0.0
2016-May-21 05:33N 35°53' E 014°31'0 0.0
2016-May-21 04:15N 35°53' E 014°31'1 2.1
2016-May-21 03:33N 35°54' E 014°32'1616.0
2016-May-21 02:33N 36°07' E 014°43'84 6.9
2016-May-20 14:24N 37°29' E 015°06'10 8.3
2016-May-20 13:16N 37°34' E 015°16'1317.8
2016-May-20 12:33N 37°46' E 015°22'1818.4
2016-May-20 11:34N 38°03' E 015°32'1717.3
2016-May-20 10:34N 38°19' E 015°39'1918.5
2016-May-20 09:33N 38°32' E 015°22'1818.4
2016-May-20 08:33N 38°44' E 015°05'31218.3
2016-May-19 15:28N 42°43' E 010°39'2418.7
2016-May-19 14:10N 43°03' E 010°22'1118.4
2016-May-19 13:33N 43°14' E 010°17'1716.9
2016-May-19 12:34N 43°31' E 010°13'6 5.7
2016-May-19 11:28N 43°35' E 010°19'0 0.0
2016-May-19 10:31N 43°35' E 010°19'0 0.0
2016-May-19 09:34N 43°35' E 010°19'0 0.0
2016-May-19 08:30N 43°35' E 010°19'0 0.0
2016-May-19 07:30N 43°35' E 010°19'0 0.0
2016-May-19 06:33N 43°35' E 010°19'0 0.0
2016-May-19 05:33N 43°35' E 010°19'0 0.0
2016-May-19 04:34N 43°35' E 010°19'2 2.4
2016-May-19 03:33N 43°33' E 010°17'1010.1
2016-May-19 02:33N 43°30' E 010°04'1514.7
2016-May-19 01:33N 43°39' E 009°47'1515.2
2016-May-19 00:33N 43°50' E 009°34'1515.2
2016-May-18 23:33N 44°02' E 009°21'1514.9
2016-May-18 22:33N 44°13' E 009°07'1413.6
2016-May-18 21:33N 44°24' E 008°55'1 1.0
2016-May-18 20:32N 44°24' E 008°53'0 0.0
2016-May-18 19:32N 44°24' E 008°53'0 0.0
2016-May-18 18:32N 44°24' E 008°53'0 0.0
2016-May-18 17:32N 44°24' E 008°53'0 0.0
2016-May-18 16:32N 44°24' E 008°53'0 0.0
2016-May-18 15:32N 44°24' E 008°53'0 0.0
2016-May-18 14:32N 44°24' E 008°53'0 0.0
2016-May-18 13:32N 44°24' E 008°53'5 4.8
2016-May-18 12:33N 44°21' E 008°58'1716.7
2016-May-18 11:33N 44°08' E 009°13'1818.5
2016-May-18 10:34N 43°54' E 009°30'1919.0
2016-May-18 09:33N 43°40' E 009°48'1919.1
2016-May-18 08:34N 43°26' E 010°04'1919.1
2016-May-18 07:33N 43°09' E 010°16'1919.1
2016-May-18 06:33N 42°52' E 010°30'17917.9
2016-May-17 20:33N 40°53' E 013°29'1918.7
2016-May-17 19:33N 40°38' E 013°44'1918.6
2016-May-17 18:31N 40°22' E 013°58'11618.6
2016-May-17 12:16N 38°46' E 015°24'1318.9
2016-May-17 11:33N 38°34' E 015°32'1919.0
2016-May-17 10:33N 38°17' E 015°42'1616.4
2016-May-17 09:33N 38°03' E 015°33'2019.3
2016-May-17 08:30N 37°44' E 015°22'63 5.5
2016-May-16 21:04N 36°42' E 015°13'1120.3
2016-May-16 20:33N 36°33' E 015°06'2020.0
2016-May-16 19:33N 36°17' E 014°52'2020.1
2016-May-16 18:33N 36°00' E 014°38'9 9.2
2016-May-16 17:33N 35°53' E 014°31'0 0.0
2016-May-16 16:30N 35°53' E 014°31'0 0.0
2016-May-16 15:30N 35°53' E 014°31'0 0.0
2016-May-16 14:30N 35°53' E 014°31'0 0.0
2016-May-16 13:24N 35°53' E 014°31'0 0.0
2016-May-16 12:12N 35°53' E 014°31'0 0.0
2016-May-16 11:25N 35°53' E 014°31'0 0.0
2016-May-16 10:12N 35°53' E 014°31'0 0.0
2016-May-16 09:06N 35°53' E 014°31'1 1.2
2016-May-16 08:20N 35°54' E 014°31'810.4
2016-May-16 07:33N 36°00' E 014°38'2018.1
2016-May-16 06:28N 36°16' E 014°51'6716.9
2016-May-16 02:30N 37°21' E 015°14'13 4.3
2016-May-15 23:23N 37°34' E 015°16'1518.4
2016-May-15 22:33N 37°48' E 015°24'1818.5
2016-May-15 21:33N 38°05' E 015°33'1514.8
2016-May-15 20:33N 38°19' E 015°39'1414.1
2016-May-15 19:33N 38°32' E 015°32'1818.1
2016-May-15 18:33N 38°49' E 015°22'14518.1
2016-May-15 10:33N 40°48' E 013°35'1818.1
2016-May-15 09:33N 41°00' E 013°17'26218.2
2016-May-14 19:08N 44°09' E 009°11'1018.3
2016-May-14 18:34N 44°17' E 009°02'9 8.9
2016-May-14 17:30N 44°24' E 008°53'0 0.0
2016-May-14 16:31N 44°24' E 008°53'0 0.0
2016-May-14 15:31N 44°24' E 008°53'0 0.0
2016-May-14 14:31N 44°24' E 008°53'0 0.0
2016-May-14 13:31N 44°24' E 008°53'  
Track history (hours):
 
Tides and Currents Weather Stations Pressure Air Temp Water Temp Dewpoint Dewpoint Depression Visibility Wind Speed Wind Dir Waves Ship Positions

Eurocargo Venezia

Last reported at 2016-May-24 13:17 UTC. Time now 2016-May-24 13:45 UTC.
Position N 42°41' E 010°41'.

Length 200 m; draft 7.5 m.

Type: Cargo ship. MMSI: 247297200.

Date/timePositionNaut miles runAvg speedWind from/ knotsBaromVisibWave heightAir tempDewpointWater temp
2016-May-24 13:17N 42°41' E 010°41'2018.6
2016-May-24 12:14N 42°57' E 010°26'1218.6
2016-May-24 11:34N 43°08' E 010°20'1918.6
2016-May-24 10:34N 43°26' E 010°13'9 8.7
2016-May-24 09:33N 43°34' E 010°19'1 0.7
2016-May-24 08:33N 43°35' E 010°19'0 0.0
2016-May-24 07:30N 43°35' E 010°19'0 0.0
2016-May-24 06:33N 43°35' E 010°19'0 0.0
2016-May-24 05:33N 43°35' E 010°19'0 0.0
2016-May-24 04:33N 43°35' E 010°19'0 0.0
2016-May-24 03:30N 43°35' E 010°19'0 0.0
2016-May-24 02:33N 43°35' E 010°19'0 0.0
2016-May-24 01:30N 43°35' E 010°19'1 1.1
2016-May-24 00:33N 43°34' E 010°18'1010.3
2016-May-23 23:33N 43°30' E 010°05'1918.6
2016-May-23 22:33N 43°41' E 009°45'1919.1
2016-May-23 21:33N 43°56' E 009°27'1919.4
2016-May-23 20:33N 44°10' E 009°10'1716.8
2016-May-23 19:33N 44°24' E 008°56'2 1.7
2016-May-23 18:32N 44°24' E 008°53'0 0.0
2016-May-23 17:32N 44°24' E 008°53'0 0.0
2016-May-23 16:32N 44°24' E 008°53'0 0.0
2016-May-23 15:32N 44°24' E 008°53'0 0.0
2016-May-23 14:29N 44°24' E 008°53'0 0.0
2016-May-23 13:29N 44°24' E 008°53'0 0.0
2016-May-23 12:32N 44°24' E 008°53'0 0.0
2016-May-23 11:32N 44°24' E 008°53'0 0.0
2016-May-23 10:32N 44°24' E 008°53'0 0.0
2016-May-23 09:32N 44°24' E 008°53'0 0.0
2016-May-23 08:32N 44°24' E 008°53'0 0.0
2016-May-23 07:32N 44°24' E 008°53'0 0.0
2016-May-23 06:32N 44°24' E 008°53'1 0.9
2016-May-23 05:33N 44°24' E 008°54'1313.3
2016-May-23 04:33N 44°14' E 009°06'1716.9
2016-May-23 03:33N 44°01' E 009°22'1717.4
2016-May-23 02:34N 43°48' E 009°37'1818.0
2016-May-23 01:33N 43°34' E 009°53'1818.0
2016-May-23 00:33N 43°20' E 010°09'1818.2
2016-May-22 23:33N 43°03' E 010°20'2418.0
2016-May-22 22:13N 42°43' E 010°38'1418.6
2016-May-22 21:27N 42°32' E 010°49'1618.0
2016-May-22 20:33N 42°21' E 011°06'1818.4
2016-May-22 19:33N 42°11' E 011°26'1818.4
2016-May-22 18:33N 41°58' E 011°44'1818.2
2016-May-22 17:33N 41°45' E 012°01'1818.4
2016-May-22 16:33N 41°32' E 012°19'1818.3
2016-May-22 15:33N 41°20' E 012°36'1818.3
2016-May-22 14:33N 41°09' E 012°57'1918.6
2016-May-22 13:33N 40°59' E 013°17'1818.5
2016-May-22 12:33N 40°47' E 013°35'1919.2
2016-May-22 11:33N 40°31' E 013°50'1919.0
2016-May-22 10:33N 40°15' E 014°04'1919.2
2016-May-22 09:33N 39°59' E 014°19'5418.1
2016-May-22 06:33N 39°15' E 014°60'1818.1
2016-May-22 05:34N 39°00' E 015°13'1818.1
2016-May-22 04:33N 38°45' E 015°25'1818.0
2016-May-22 03:33N 38°29' E 015°36'1414.5
2016-May-22 02:34N 38°15' E 015°39'1616.2
2016-May-22 01:33N 37°60' E 015°31'2020.0
2016-May-22 00:33N 37°42' E 015°20'17 2.3
2016-May-21 17:17N 37°29' E 015°06'4414.9
2016-May-21 14:20N 36°46' E 015°16'1620.3
2016-May-21 13:33N 36°33' E 015°06'2019.9
2016-May-21 12:34N 36°17' E 014°52'2019.5
2016-May-21 11:34N 36°00' E 014°38'10 9.5
2016-May-21 10:33N 35°53' E 014°31'0 0.0
2016-May-21 09:33N 35°53' E 014°31'0 0.0
2016-May-21 08:33N 35°53' E 014°31'0 0.0
2016-May-21 07:33N 35°53' E 014°31'0 0.0
2016-May-21 06:30N 35°53' E 014°31'0 0.0
2016-May-21 05:33N 35°53' E 014°31'0 0.0
2016-May-21 04:15N 35°53' E 014°31'1 2.1
2016-May-21 03:33N 35°54' E 014°32'1616.0
2016-May-21 02:33N 36°07' E 014°43'84 6.9
2016-May-20 14:24N 37°29' E 015°06'10 8.3
2016-May-20 13:16N 37°34' E 015°16'1317.8
2016-May-20 12:33N 37°46' E 015°22'1818.4
2016-May-20 11:34N 38°03' E 015°32'1717.3
2016-May-20 10:34N 38°19' E 015°39'1918.5
2016-May-20 09:33N 38°32' E 015°22'1818.4
2016-May-20 08:33N 38°44' E 015°05'31218.3
2016-May-19 15:28N 42°43' E 010°39'2418.7
2016-May-19 14:10N 43°03' E 010°22'1118.4
2016-May-19 13:33N 43°14' E 010°17'1716.9
2016-May-19 12:34N 43°31' E 010°13'6 5.7
2016-May-19 11:28N 43°35' E 010°19'0 0.0
2016-May-19 10:31N 43°35' E 010°19'0 0.0
2016-May-19 09:34N 43°35' E 010°19'0 0.0
2016-May-19 08:30N 43°35' E 010°19'0 0.0
2016-May-19 07:30N 43°35' E 010°19'0 0.0
2016-May-19 06:33N 43°35' E 010°19'0 0.0
2016-May-19 05:33N 43°35' E 010°19'0 0.0
2016-May-19 04:34N 43°35' E 010°19'2 2.4
2016-May-19 03:33N 43°33' E 010°17'1010.1
2016-May-19 02:33N 43°30' E 010°04'1514.7
2016-May-19 01:33N 43°39' E 009°47'1515.2
2016-May-19 00:33N 43°50' E 009°34'1515.2
2016-May-18 23:33N 44°02' E 009°21'1514.9
2016-May-18 22:33N 44°13' E 009°07'1413.6
2016-May-18 21:33N 44°24' E 008°55'1 1.0
2016-May-18 20:32N 44°24' E 008°53'0 0.0
2016-May-18 19:32N 44°24' E 008°53'0 0.0
2016-May-18 18:32N 44°24' E 008°53'0 0.0
2016-May-18 17:32N 44°24' E 008°53'0 0.0
2016-May-18 16:32N 44°24' E 008°53'0 0.0
2016-May-18 15:32N 44°24' E 008°53'0 0.0
2016-May-18 14:32N 44°24' E 008°53'0 0.0
2016-May-18 13:32N 44°24' E 008°53'5 4.8
2016-May-18 12:33N 44°21' E 008°58'1716.7
2016-May-18 11:33N 44°08' E 009°13'1818.5
2016-May-18 10:34N 43°54' E 009°30'1919.0
2016-May-18 09:33N 43°40' E 009°48'1919.1
2016-May-18 08:34N 43°26' E 010°04'1919.1
2016-May-18 07:33N 43°09' E 010°16'1919.1
2016-May-18 06:33N 42°52' E 010°30'17917.9
2016-May-17 20:33N 40°53' E 013°29'1918.7
2016-May-17 19:33N 40°38' E 013°44'1918.6
2016-May-17 18:31N 40°22' E 013°58'11618.6
2016-May-17 12:16N 38°46' E 015°24'1318.9
2016-May-17 11:33N 38°34' E 015°32'1919.0
2016-May-17 10:33N 38°17' E 015°42'1616.4
2016-May-17 09:33N 38°03' E 015°33'2019.3
2016-May-17 08:30N 37°44' E 015°22'63 5.5
2016-May-16 21:04N 36°42' E 015°13'1120.3
2016-May-16 20:33N 36°33' E 015°06'2020.0
2016-May-16 19:33N 36°17' E 014°52'2020.1
2016-May-16 18:33N 36°00' E 014°38'9 9.2
2016-May-16 17:33N 35°53' E 014°31'0 0.0
2016-May-16 16:30N 35°53' E 014°31'0 0.0
2016-May-16 15:30N 35°53' E 014°31'0 0.0
2016-May-16 14:30N 35°53' E 014°31'0 0.0
2016-May-16 13:24N 35°53' E 014°31'0 0.0
2016-May-16 12:12N 35°53' E 014°31'0 0.0
2016-May-16 11:25N 35°53' E 014°31'0 0.0
2016-May-16 10:12N 35°53' E 014°31'0 0.0
2016-May-16 09:06N 35°53' E 014°31'1 1.2
2016-May-16 08:20N 35°54' E 014°31'810.4
2016-May-16 07:33N 36°00' E 014°38'2018.1
2016-May-16 06:28N 36°16' E 014°51'6716.9
2016-May-16 02:30N 37°21' E 015°14'13 4.3
2016-May-15 23:23N 37°34' E 015°16'1518.4
2016-May-15 22:33N 37°48' E 015°24'1818.5
2016-May-15 21:33N 38°05' E 015°33'1514.8
2016-May-15 20:33N 38°19' E 015°39'1414.1
2016-May-15 19:33N 38°32' E 015°32'1818.1
2016-May-15 18:33N 38°49' E 015°22'14518.1
2016-May-15 10:33N 40°48' E 013°35'1818.1
2016-May-15 09:33N 41°00' E 013°17'26218.2
2016-May-14 19:08N 44°09' E 009°11'1018.3
2016-May-14 18:34N 44°17' E 009°02'9 8.9
2016-May-14 17:30N 44°24' E 008°53'0 0.0
2016-May-14 16:31N 44°24' E 008°53'0 0.0
2016-May-14 15:31N 44°24' E 008°53'0 0.0
2016-May-14 14:31N 44°24' E 008°53'0 0.0
2016-May-14 13:31N 44°24' E 008°53'  

Dump ship's entire track history